<?xml version='1.0' encoding='UTF-8'?><gpx version="1.1" creator="JPX - https://github.com/jenetics/jpx" xmlns="http://www.topografix.com/GPX/1/1"><trk><trkseg><trkpt lat="42.69414809581902" lon="12.717725705431908"><ele>498.7142857142857</ele><time>2026-04-11T07:41:56Z</time></trkpt><trkpt lat="42.694177384113395" lon="12.717806256170235"><ele>496.42857142857144</ele><time>2026-04-11T07:42:02Z</time></trkpt><trkpt lat="42.69418776319949" lon="12.717892849641878"><ele>494.14285714285717</ele><time>2026-04-11T07:42:07Z</time></trkpt><trkpt lat="42.69417592439679" lon="12.717989775145176"><ele>491.8571428571429</ele><time>2026-04-11T07:42:19Z</time></trkpt><trkpt lat="42.69417042601406" lon="12.71808841812717"><ele>489.57142857142856</ele><time>2026-04-11T07:42:28Z</time></trkpt><trkpt lat="42.694186062331944" lon="12.718174517223645"><ele>487.28571428571433</ele><time>2026-04-11T07:42:34Z</time></trkpt><trkpt lat="42.694182107331585" lon="12.71826620435221"><ele>485.00000000000006</ele><time>2026-04-11T07:42:40Z</time></trkpt><trkpt lat="42.69415940048899" lon="12.718356250238912"><ele>485.00000000000006</ele><time>2026-04-11T07:42:50Z</time></trkpt><trkpt lat="42.694126787378224" lon="12.718434138983609"><ele>485.0</ele><time>2026-04-11T07:42:57Z</time></trkpt><trkpt lat="42.694084473183814" lon="12.718508939682364"><ele>485.00000000000006</ele><time>2026-04-11T07:43:03Z</time></trkpt><trkpt lat="42.69404664436338" lon="12.718588552666215"><ele>485.00000000000006</ele><time>2026-04-11T07:43:09.999Z</time></trkpt><trkpt lat="42.693991684206665" lon="12.718652188698911"><ele>485.0</ele><time>2026-04-11T07:43:16.999Z</time></trkpt><trkpt lat="42.69394528907315" lon="12.718715325936403"><ele>485.00000000000006</ele><time>2026-04-11T07:43:23.999Z</time></trkpt><trkpt lat="42.69387844404154" lon="12.718751346056797"><ele>485.00000000000006</ele><time>2026-04-11T07:43:34.999Z</time></trkpt><trkpt lat="42.693855326463826" lon="12.71883441684547"><ele>485.28571428571433</ele><time>2026-04-11T07:43:50.999Z</time></trkpt><trkpt lat="42.69381513466626" lon="12.718910630648343"><ele>485.57142857142856</ele><time>2026-04-11T07:43:56Z</time></trkpt><trkpt lat="42.69376379871885" lon="12.71898666443685"><ele>485.8571428571429</ele><time>2026-04-11T07:44:02Z</time></trkpt><trkpt lat="42.69370484690743" lon="12.719027077780712"><ele>486.14285714285717</ele><time>2026-04-11T07:44:07Z</time></trkpt><trkpt lat="42.69363241293522" lon="12.719009985289105"><ele>486.42857142857144</ele><time>2026-04-11T07:44:22Z</time></trkpt><trkpt lat="42.69357301579114" lon="12.718968503612386"><ele>486.7142857142857</ele><time>2026-04-11T07:44:29Z</time></trkpt><trkpt lat="42.69359536759232" lon="12.718886978632417"><ele>487.0</ele><time>2026-04-11T07:44:36Z</time></trkpt><trkpt lat="42.693623146100826" lon="12.71880731042197"><ele>486.7142857142857</ele><time>2026-04-11T07:44:52Z</time></trkpt><trkpt lat="42.69366668137031" lon="12.718744273543324"><ele>486.42857142857144</ele><time>2026-04-11T07:44:59Z</time></trkpt><trkpt lat="42.69370614892987" lon="12.71865820931252"><ele>486.14285714285717</ele><time>2026-04-11T07:45:04.999Z</time></trkpt><trkpt lat="42.693704047286204" lon="12.718565738977988"><ele>485.8571428571429</ele><time>2026-04-11T07:45:12.999Z</time></trkpt><trkpt lat="42.69364105088271" lon="12.718501816618652"><ele>485.57142857142856</ele><time>2026-04-11T07:45:19.999Z</time></trkpt><trkpt lat="42.69358496336843" lon="12.718461288363175"><ele>485.28571428571433</ele><time>2026-04-11T07:45:25.999Z</time></trkpt><trkpt lat="42.69354297999564" lon="12.718395749180882"><ele>485.00000000000006</ele><time>2026-04-11T07:45:30.999Z</time></trkpt><trkpt lat="42.693505907860825" lon="12.718324216310057"><ele>484.28571428571433</ele><time>2026-04-11T07:45:36.999Z</time></trkpt><trkpt lat="42.69344551074173" lon="12.718270108184223"><ele>483.57142857142856</ele><time>2026-04-11T07:45:43.999Z</time></trkpt><trkpt lat="42.69339254930725" lon="12.718222249580556"><ele>482.8571428571429</ele><time>2026-04-11T07:45:48.999Z</time></trkpt><trkpt lat="42.69334073962404" lon="12.718152994712819"><ele>482.14285714285717</ele><time>2026-04-11T07:45:55.999Z</time></trkpt><trkpt lat="42.69330472858626" lon="12.71807505475105"><ele>481.42857142857144</ele><time>2026-04-11T07:46:02.999Z</time></trkpt><trkpt lat="42.693270085391894" lon="12.717995825524147"><ele>480.7142857142857</ele><time>2026-04-11T07:46:09.999Z</time></trkpt><trkpt lat="42.69322592762501" lon="12.717930542523739"><ele>480.0</ele><time>2026-04-11T07:46:14.999Z</time></trkpt><trkpt lat="42.69318596121113" lon="12.717855335877866"><ele>480.0</ele><time>2026-04-11T07:46:21.999Z</time></trkpt><trkpt lat="42.69312436484908" lon="12.717890512628308"><ele>480.0</ele><time>2026-04-11T07:46:32Z</time></trkpt><trkpt lat="42.69305476345229" lon="12.717935534138448"><ele>480.0</ele><time>2026-04-11T07:46:51Z</time></trkpt><trkpt lat="42.69300580429914" lon="12.717873095070848"><ele>480.0</ele><time>2026-04-11T07:46:58Z</time></trkpt><trkpt lat="42.692948794319115" lon="12.717823723381835"><ele>480.0</ele><time>2026-04-11T07:47:06Z</time></trkpt><trkpt lat="42.69288499711799" lon="12.717796902970196"><ele>480.0</ele><time>2026-04-11T07:47:15Z</time></trkpt><trkpt lat="42.69282308922155" lon="12.717751528054057"><ele>480.0</ele><time>2026-04-11T07:47:24Z</time></trkpt><trkpt lat="42.69276413728059" lon="12.71770681838332"><ele>481.0</ele><time>2026-04-11T07:47:32Z</time></trkpt><trkpt lat="42.69275003236536" lon="12.717612787655087"><ele>482.0</ele><time>2026-04-11T07:47:39Z</time></trkpt><trkpt lat="42.69268594211114" lon="12.717589608078441"><ele>483.0</ele><time>2026-04-11T07:47:45Z</time></trkpt><trkpt lat="42.692619837415144" lon="12.71754815507826"><ele>484.0</ele><time>2026-04-11T07:47:52Z</time></trkpt><trkpt lat="42.69255189147512" lon="12.71757508953503"><ele>485.0</ele><time>2026-04-11T07:47:59Z</time></trkpt><trkpt lat="42.69248928600761" lon="12.717538498588745"><ele>486.0</ele><time>2026-04-11T07:48:10Z</time></trkpt><trkpt lat="42.69244244186737" lon="12.717477278945411"><ele>487.0</ele><time>2026-04-11T07:48:18Z</time></trkpt><trkpt lat="42.69238742601237" lon="12.717435016723746"><ele>487.0</ele><time>2026-04-11T07:48:25Z</time></trkpt><trkpt lat="42.69233269712017" lon="12.71738189367469"><ele>487.0</ele><time>2026-04-11T07:48:33Z</time></trkpt><trkpt lat="42.69230548385073" lon="12.71730371466803"><ele>487.0</ele><time>2026-04-11T07:48:42Z</time></trkpt><trkpt lat="42.692243272167744" lon="12.717282773078942"><ele>487.0</ele><time>2026-04-11T07:48:53Z</time></trkpt><trkpt lat="42.69217918166535" lon="12.71727398297982"><ele>487.0</ele><time>2026-04-11T07:49:03Z</time></trkpt><trkpt lat="42.69211371232663" lon="12.717262916910437"><ele>487.0</ele><time>2026-04-11T07:49:11Z</time></trkpt><trkpt lat="42.69205352156563" lon="12.71731283934142"><ele>487.0</ele><time>2026-04-11T07:49:18Z</time></trkpt><trkpt lat="42.691987613419926" lon="12.717310582800497"><ele>488.57142857142856</ele><time>2026-04-11T07:49:24Z</time></trkpt><trkpt lat="42.69192308180577" lon="12.717301980508822"><ele>490.1428571428571</ele><time>2026-04-11T07:49:31Z</time></trkpt><trkpt lat="42.691850530767134" lon="12.717297490753392"><ele>491.71428571428567</ele><time>2026-04-11T07:49:38Z</time></trkpt><trkpt lat="42.69178602849581" lon="12.717276006633165"><ele>493.2857142857143</ele><time>2026-04-11T07:49:45Z</time></trkpt><trkpt lat="42.69172236396508" lon="12.71725893009671"><ele>494.8571428571428</ele><time>2026-04-11T07:49:51Z</time></trkpt><trkpt lat="42.69165399256968" lon="12.717223080841354"><ele>496.4285714285714</ele><time>2026-04-11T07:49:59Z</time></trkpt><trkpt lat="42.69158714670642" lon="12.717212354271084"><ele>498.0</ele><time>2026-04-11T07:50:06Z</time></trkpt><trkpt lat="42.69152381959181" lon="12.717197968695857"><ele>498.0</ele><time>2026-04-11T07:50:12Z</time></trkpt><trkpt lat="42.69146234470981" lon="12.717124434830163"><ele>497.99999999999994</ele><time>2026-04-11T07:50:21Z</time></trkpt><trkpt lat="42.691398913231076" lon="12.717133415932572"><ele>498.0</ele><time>2026-04-11T07:50:27Z</time></trkpt><trkpt lat="42.69132987007124" lon="12.717104343406305"><ele>498.0</ele><time>2026-04-11T07:50:42Z</time></trkpt><trkpt lat="42.69126975426091" lon="12.717069698165558"><ele>497.99999999999994</ele><time>2026-04-11T07:50:57Z</time></trkpt><trkpt lat="42.69120822975982" lon="12.717030587654461"><ele>498.0</ele><time>2026-04-11T07:51:16Z</time></trkpt><trkpt lat="42.69114067023932" lon="12.716997581920575"><ele>498.0</ele><time>2026-04-11T07:51:27Z</time></trkpt><trkpt lat="42.69107480102482" lon="12.7169863389947"><ele>499.0</ele><time>2026-04-11T07:51:36Z</time></trkpt><trkpt lat="42.69101636929361" lon="12.71694857658101"><ele>499.99999999999994</ele><time>2026-04-11T07:51:46Z</time></trkpt><trkpt lat="42.69094363300651" lon="12.716940938268023"><ele>501.0</ele><time>2026-04-11T07:51:55Z</time></trkpt><trkpt lat="42.69090026862674" lon="12.716871859078939"><ele>502.0</ele><time>2026-04-11T07:52:11Z</time></trkpt><trkpt lat="42.69083590414873" lon="12.71687167766179"><ele>502.99999999999994</ele><time>2026-04-11T07:52:18Z</time></trkpt><trkpt lat="42.69077039990554" lon="12.716872062860736"><ele>504.0</ele><time>2026-04-11T07:52:26Z</time></trkpt><trkpt lat="42.69070189484848" lon="12.716826322410292"><ele>505.0</ele><time>2026-04-11T07:52:36Z</time></trkpt><trkpt lat="42.69065441920115" lon="12.71676664242156"><ele>505.0</ele><time>2026-04-11T07:52:42Z</time></trkpt><trkpt lat="42.690594729144664" lon="12.716736278635766"><ele>504.99999999999994</ele><time>2026-04-11T07:53:05Z</time></trkpt><trkpt lat="42.69056498070274" lon="12.716659444017429"><ele>505.0</ele><time>2026-04-11T07:53:12Z</time></trkpt><trkpt lat="42.690511200622176" lon="12.716613886916937"><ele>505.0</ele><time>2026-04-11T07:53:18Z</time></trkpt><trkpt lat="42.69043882253313" lon="12.716620402192532"><ele>504.99999999999994</ele><time>2026-04-11T07:53:30Z</time></trkpt><trkpt lat="42.690375397916256" lon="12.716629897241747"><ele>505.0</ele><time>2026-04-11T07:53:36Z</time></trkpt><trkpt lat="42.69030942959825" lon="12.716596772261898"><ele>505.0</ele><time>2026-04-11T07:53:43Z</time></trkpt><trkpt lat="42.69026001870466" lon="12.71652727773755"><ele>506.57142857142856</ele><time>2026-04-11T07:53:50Z</time></trkpt><trkpt lat="42.69019856723072" lon="12.716559725934513"><ele>508.1428571428571</ele><time>2026-04-11T07:53:57Z</time></trkpt><trkpt lat="42.690136320639944" lon="12.716573765289528"><ele>509.71428571428567</ele><time>2026-04-11T07:54:05Z</time></trkpt><trkpt lat="42.69006035763338" lon="12.71656948675005"><ele>511.2857142857142</ele><time>2026-04-11T07:54:13Z</time></trkpt><trkpt lat="42.68999410718496" lon="12.71657238536554"><ele>512.8571428571429</ele><time>2026-04-11T07:54:39Z</time></trkpt><trkpt lat="42.68993199968244" lon="12.716550467807854"><ele>514.4285714285713</ele><time>2026-04-11T07:54:46Z</time></trkpt><trkpt lat="42.68985997039779" lon="12.716552018176381"><ele>516.0</ele><time>2026-04-11T07:54:51Z</time></trkpt><trkpt lat="42.6897932117456" lon="12.716524177919684"><ele>515.9999999999999</ele><time>2026-04-11T07:55:01Z</time></trkpt><trkpt lat="42.689732464485736" lon="12.716476350020834"><ele>516.0</ele><time>2026-04-11T07:55:12Z</time></trkpt><trkpt lat="42.68969433276675" lon="12.716404983094828"><ele>516.0</ele><time>2026-04-11T07:55:19Z</time></trkpt><trkpt lat="42.68964821686351" lon="12.716340524283101"><ele>516.0</ele><time>2026-04-11T07:55:31Z</time></trkpt><trkpt lat="42.68959305786004" lon="12.71628500362533"><ele>516.0</ele><time>2026-04-11T07:55:40Z</time></trkpt><trkpt lat="42.68952469929025" lon="12.716267321493508"><ele>515.9999999999999</ele><time>2026-04-11T07:55:48Z</time></trkpt><trkpt lat="42.689460267559916" lon="12.716224495367445"><ele>516.0</ele><time>2026-04-11T07:55:57Z</time></trkpt><trkpt lat="42.689403992682735" lon="12.716185064849622"><ele>517.9999999999999</ele><time>2026-04-11T07:56:05Z</time></trkpt><trkpt lat="42.689335807153604" lon="12.716217977503488"><ele>520.0</ele><time>2026-04-11T07:56:16Z</time></trkpt><trkpt lat="42.689273075086405" lon="12.716172207210182"><ele>522.0</ele><time>2026-04-11T07:56:26Z</time></trkpt><trkpt lat="42.689201209416815" lon="12.716180580755427"><ele>524.0</ele><time>2026-04-11T07:56:40Z</time></trkpt><trkpt lat="42.68912627808894" lon="12.716144713396007"><ele>526.0</ele><time>2026-04-11T07:56:55Z</time></trkpt><trkpt lat="42.68906329768746" lon="12.716157381007992"><ele>527.9999999999999</ele><time>2026-04-11T07:57:03Z</time></trkpt><trkpt lat="42.688990539714155" lon="12.716157465934733"><ele>530.0</ele><time>2026-04-11T07:57:14Z</time></trkpt><trkpt lat="42.68894051861065" lon="12.71609254774663"><ele>529.9999999999999</ele><time>2026-04-11T07:57:21Z</time></trkpt><trkpt lat="42.68886939201525" lon="12.716090206055815"><ele>530.0</ele><time>2026-04-11T07:57:35Z</time></trkpt><trkpt lat="42.68880440955428" lon="12.716081949778301"><ele>530.0</ele><time>2026-04-11T07:58:04Z</time></trkpt><trkpt lat="42.688749072103214" lon="12.716038536139571"><ele>530.0</ele><time>2026-04-11T07:58:11Z</time></trkpt><trkpt lat="42.68868671664309" lon="12.715994405811266"><ele>530.0</ele><time>2026-04-11T07:58:20Z</time></trkpt><trkpt lat="42.68862485321002" lon="12.715966570870632"><ele>529.9999999999999</ele><time>2026-04-11T07:58:27Z</time></trkpt><trkpt lat="42.68855881358589" lon="12.715933484063852"><ele>530.0</ele><time>2026-04-11T07:58:36Z</time></trkpt><trkpt lat="42.68849135023637" lon="12.715899935672867"><ele>529.9999999999999</ele><time>2026-04-11T07:58:49Z</time></trkpt><trkpt lat="42.68842043621027" lon="12.715922090558772"><ele>530.0</ele><time>2026-04-11T07:59:00Z</time></trkpt><trkpt lat="42.68845665236718" lon="12.71599615115664"><ele>530.0</ele><time>2026-04-11T07:59:26Z</time></trkpt><trkpt lat="42.68852511757394" lon="12.716025712522308"><ele>530.0</ele><time>2026-04-11T07:59:36Z</time></trkpt><trkpt lat="42.688593645022046" lon="12.71604777078202"><ele>530.0</ele><time>2026-04-11T07:59:43Z</time></trkpt><trkpt lat="42.68865996186491" lon="12.71606751063137"><ele>529.9999999999999</ele><time>2026-04-11T07:59:51Z</time></trkpt><trkpt lat="42.68873200854524" lon="12.716098325321212"><ele>530.0</ele><time>2026-04-11T07:59:59Z</time></trkpt><trkpt lat="42.68878880863155" lon="12.71615557458316"><ele>529.9999999999999</ele><time>2026-04-11T08:00:06Z</time></trkpt><trkpt lat="42.6888543918061" lon="12.716205957183577"><ele>530.0</ele><time>2026-04-11T08:00:26Z</time></trkpt><trkpt lat="42.68891756992405" lon="12.716220503298898"><ele>530.0</ele><time>2026-04-11T08:00:44Z</time></trkpt><trkpt lat="42.688997127104074" lon="12.716252191653139"><ele>530.0</ele><time>2026-04-11T08:00:53Z</time></trkpt><trkpt lat="42.68906944739039" lon="12.71626788180754"><ele>530.0</ele><time>2026-04-11T08:01:07Z</time></trkpt><trkpt lat="42.68914006698628" lon="12.716262094386833"><ele>529.9999999999999</ele><time>2026-04-11T08:01:15Z</time></trkpt><trkpt lat="42.689201323041175" lon="12.71628955121367"><ele>530.0</ele><time>2026-04-11T08:01:22Z</time></trkpt><trkpt lat="42.68926480813231" lon="12.716329763671945"><ele>529.9999999999999</ele><time>2026-04-11T08:01:30Z</time></trkpt><trkpt lat="42.689318438060525" lon="12.716374866428067"><ele>530.0</ele><time>2026-04-11T08:01:51Z</time></trkpt><trkpt lat="42.68938255733948" lon="12.716395366646372"><ele>530.0</ele><time>2026-04-11T08:01:57Z</time></trkpt><trkpt lat="42.689451687272815" lon="12.716396700177695"><ele>530.0</ele><time>2026-04-11T08:02:07Z</time></trkpt><trkpt lat="42.689522282870364" lon="12.716378960874533"><ele>530.0</ele><time>2026-04-11T08:02:19Z</time></trkpt><trkpt lat="42.689586012488874" lon="12.716374518399386"><ele>529.9999999999999</ele><time>2026-04-11T08:02:29Z</time></trkpt><trkpt lat="42.68963538810928" lon="12.716448215376403"><ele>530.0</ele><time>2026-04-11T08:02:39Z</time></trkpt><trkpt lat="42.68969549716545" lon="12.716478147581276"><ele>527.9999999999999</ele><time>2026-04-11T08:02:49Z</time></trkpt><trkpt lat="42.68976725896597" lon="12.71651337643373"><ele>526.0</ele><time>2026-04-11T08:02:59Z</time></trkpt><trkpt lat="42.68982910677624" lon="12.716561075326895"><ele>524.0</ele><time>2026-04-11T08:03:05Z</time></trkpt><trkpt lat="42.68989712107928" lon="12.716567894288017"><ele>522.0</ele><time>2026-04-11T08:03:15Z</time></trkpt><trkpt lat="42.68996603806313" lon="12.716591920816676"><ele>520.0</ele><time>2026-04-11T08:03:22Z</time></trkpt><trkpt lat="42.69002844330655" lon="12.716626026562317"><ele>517.9999999999999</ele><time>2026-04-11T08:03:30Z</time></trkpt><trkpt lat="42.69006668037224" lon="12.716695605202496"><ele>516.0</ele><time>2026-04-11T08:03:37Z</time></trkpt><trkpt lat="42.69014142030927" lon="12.716664338742762"><ele>515.9999999999999</ele><time>2026-04-11T08:03:52Z</time></trkpt><trkpt lat="42.690210456428794" lon="12.716675066408813"><ele>516.0</ele><time>2026-04-11T08:03:59Z</time></trkpt><trkpt lat="42.69025622252053" lon="12.716749780245578"><ele>516.0</ele><time>2026-04-11T08:04:06Z</time></trkpt><trkpt lat="42.69030585851805" lon="12.716813043490571"><ele>516.0</ele><time>2026-04-11T08:04:16Z</time></trkpt><trkpt lat="42.69036549886892" lon="12.716844578380739"><ele>516.0</ele><time>2026-04-11T08:04:26Z</time></trkpt><trkpt lat="42.690429256241266" lon="12.716850804637703"><ele>515.9999999999999</ele><time>2026-04-11T08:04:46Z</time></trkpt><trkpt lat="42.69048460555211" lon="12.716803810489266"><ele>516.0</ele><time>2026-04-11T08:04:55Z</time></trkpt><trkpt lat="42.6905513469545" lon="12.71684929338871"><ele>515.9999999999999</ele><time>2026-04-11T08:05:25Z</time></trkpt><trkpt lat="42.69061696553584" lon="12.716866116607136"><ele>516.0</ele><time>2026-04-11T08:05:56Z</time></trkpt><trkpt lat="42.690682807739236" lon="12.716904417168834"><ele>516.0</ele><time>2026-04-11T08:06:02Z</time></trkpt><trkpt lat="42.690736566988186" lon="12.716962675045693"><ele>516.0</ele><time>2026-04-11T08:06:10Z</time></trkpt><trkpt lat="42.6908010455756" lon="12.717006438984894"><ele>516.0</ele><time>2026-04-11T08:06:24Z</time></trkpt><trkpt lat="42.69087123595498" lon="12.717007887722284"><ele>515.9999999999999</ele><time>2026-04-11T08:06:37Z</time></trkpt><trkpt lat="42.6909338780598" lon="12.717048477104713"><ele>516.0</ele><time>2026-04-11T08:06:45Z</time></trkpt><trkpt lat="42.69099235603801" lon="12.71709293384389"><ele>515.9999999999999</ele><time>2026-04-11T08:06:52Z</time></trkpt><trkpt lat="42.691054643028075" lon="12.717128654981233"><ele>516.0</ele><time>2026-04-11T08:07:03Z</time></trkpt><trkpt lat="42.6911250029694" lon="12.717144260669592"><ele>516.0</ele><time>2026-04-11T08:07:09Z</time></trkpt><trkpt lat="42.691187015534865" lon="12.717185982062324"><ele>516.0</ele><time>2026-04-11T08:07:17Z</time></trkpt><trkpt lat="42.69125574190875" lon="12.717228221324747"><ele>516.0</ele><time>2026-04-11T08:07:25Z</time></trkpt><trkpt lat="42.69131664928741" lon="12.71725563520241"><ele>515.9999999999999</ele><time>2026-04-11T08:07:45Z</time></trkpt><trkpt lat="42.69138355852374" lon="12.717278018421172"><ele>516.0</ele><time>2026-04-11T08:08:02Z</time></trkpt><trkpt lat="42.69144285997405" lon="12.717306932359458"><ele>513.4285714285713</ele><time>2026-04-11T08:08:29Z</time></trkpt><trkpt lat="42.69150561800584" lon="12.717298734483053"><ele>510.85714285714283</ele><time>2026-04-11T08:08:38Z</time></trkpt><trkpt lat="42.69156860255979" lon="12.717318970560413"><ele>508.2857142857142</ele><time>2026-04-11T08:08:53Z</time></trkpt><trkpt lat="42.691631858338425" lon="12.717339168006081"><ele>505.71428571428567</ele><time>2026-04-11T08:09:12Z</time></trkpt><trkpt lat="42.691699279052145" lon="12.717333650894325"><ele>503.1428571428571</ele><time>2026-04-11T08:09:32Z</time></trkpt><trkpt lat="42.69177998991574" lon="12.717361700466702"><ele>500.57142857142856</ele><time>2026-04-11T08:09:44Z</time></trkpt><trkpt lat="42.691843404655195" lon="12.717352748665062"><ele>498.0</ele><time>2026-04-11T08:09:51Z</time></trkpt><trkpt lat="42.69191490478006" lon="12.717366029735553"><ele>496.4285714285714</ele><time>2026-04-11T08:10:02Z</time></trkpt><trkpt lat="42.69197372433794" lon="12.717400513662009"><ele>494.8571428571428</ele><time>2026-04-11T08:10:12Z</time></trkpt><trkpt lat="42.69204687927816" lon="12.717409136532757"><ele>493.2857142857143</ele><time>2026-04-11T08:10:35Z</time></trkpt><trkpt lat="42.69211813931364" lon="12.717429927809308"><ele>491.71428571428567</ele><time>2026-04-11T08:10:44Z</time></trkpt><trkpt lat="42.69218166974174" lon="12.717449365566873"><ele>490.1428571428571</ele><time>2026-04-11T08:10:52Z</time></trkpt><trkpt lat="42.69225112809118" lon="12.717463391771359"><ele>488.57142857142856</ele><time>2026-04-11T08:10:57Z</time></trkpt><trkpt lat="42.69231473462935" lon="12.717503727904761"><ele>487.0</ele><time>2026-04-11T08:11:10Z</time></trkpt><trkpt lat="42.69240152565928" lon="12.717558313181643"><ele>487.0</ele><time>2026-04-11T08:11:33Z</time></trkpt><trkpt lat="42.69245804367963" lon="12.717599886804827"><ele>487.0</ele><time>2026-04-11T08:11:44Z</time></trkpt><trkpt lat="42.692529042577604" lon="12.717618283301508"><ele>487.0</ele><time>2026-04-11T08:11:51Z</time></trkpt><trkpt lat="42.692599996214945" lon="12.717632419662769"><ele>487.0</ele><time>2026-04-11T08:12:01Z</time></trkpt><trkpt lat="42.69266219800177" lon="12.717667171938292"><ele>487.0</ele><time>2026-04-11T08:12:16Z</time></trkpt><trkpt lat="42.692709187092234" lon="12.717740437863801"><ele>487.0</ele><time>2026-04-11T08:12:27Z</time></trkpt><trkpt lat="42.692769305438155" lon="12.717783667413014"><ele>487.0</ele><time>2026-04-11T08:12:34Z</time></trkpt><trkpt lat="42.69282307337794" lon="12.71782835556561"><ele>486.0</ele><time>2026-04-11T08:12:49Z</time></trkpt><trkpt lat="42.6928746577081" lon="12.717879978668135"><ele>485.0</ele><time>2026-04-11T08:13:00Z</time></trkpt><trkpt lat="42.69292635101601" lon="12.717942177559335"><ele>484.0</ele><time>2026-04-11T08:13:12Z</time></trkpt><trkpt lat="42.69299031175985" lon="12.717970650837572"><ele>483.0</ele><time>2026-04-11T08:13:19Z</time></trkpt><trkpt lat="42.69305515081275" lon="12.718004338253746"><ele>482.0</ele><time>2026-04-11T08:13:25.999Z</time></trkpt><trkpt lat="42.69312107279084" lon="12.718017688807768"><ele>481.0</ele><time>2026-04-11T08:13:32Z</time></trkpt><trkpt lat="42.69318732322013" lon="12.7180583454862"><ele>480.0</ele><time>2026-04-11T08:13:38Z</time></trkpt><trkpt lat="42.693208215807296" lon="12.718141500107476"><ele>480.0</ele><time>2026-04-11T08:13:49Z</time></trkpt><trkpt lat="42.693188845752964" lon="12.71823559370742"><ele>480.0</ele><time>2026-04-11T08:13:57Z</time></trkpt><trkpt lat="42.693134400321924" lon="12.7182828513121"><ele>480.0</ele><time>2026-04-11T08:14:04Z</time></trkpt><trkpt lat="42.693099996513965" lon="12.71836295734155"><ele>480.0</ele><time>2026-04-11T08:14:13Z</time></trkpt><trkpt lat="42.69315183007207" lon="12.718412173322546"><ele>480.0</ele><time>2026-04-11T08:14:32Z</time></trkpt><trkpt lat="42.69321956984012" lon="12.718323309259398"><ele>480.0</ele><time>2026-04-11T08:14:36Z</time></trkpt><trkpt lat="42.693303635312304" lon="12.718316624624833"><ele>480.0</ele><time>2026-04-11T08:14:38Z</time></trkpt><trkpt lat="42.693242430781716" lon="12.71829291824192"><ele>480.0</ele><time>2026-04-11T08:14:40Z</time></trkpt><trkpt lat="42.69330778952588" lon="12.718296233512836"><ele>480.0</ele><time>2026-04-11T08:14:46Z</time></trkpt><trkpt lat="42.69334705013023" lon="12.718374418746478"><ele>480.0</ele><time>2026-04-11T08:14:51Z</time></trkpt><trkpt lat="42.69335414693163" lon="12.718470424693077"><ele>480.0</ele><time>2026-04-11T08:14:58Z</time></trkpt><trkpt lat="42.693348722565865" lon="12.718568263098014"><ele>480.0</ele><time>2026-04-11T08:15:06Z</time></trkpt><trkpt lat="42.693383428033734" lon="12.718651261556847"><ele>480.0</ele><time>2026-04-11T08:15:19Z</time></trkpt><trkpt lat="42.69341923416785" lon="12.718731714117547"><ele>480.0</ele><time>2026-04-11T08:15:25.999Z</time></trkpt><trkpt lat="42.69344882994577" lon="12.718823238851549"><ele>479.57142857142856</ele><time>2026-04-11T08:15:32.999Z</time></trkpt><trkpt lat="42.69347999853325" lon="12.718899136889915"><ele>479.1428571428571</ele><time>2026-04-11T08:15:38.999Z</time></trkpt><trkpt lat="42.693510498791504" lon="12.718980320566121"><ele>478.71428571428567</ele><time>2026-04-11T08:15:44.999Z</time></trkpt><trkpt lat="42.69353030876065" lon="12.719067981124418"><ele>478.2857142857143</ele><time>2026-04-11T08:15:50.999Z</time></trkpt><trkpt lat="42.69353538580238" lon="12.719154230741436"><ele>477.8571428571428</ele><time>2026-04-11T08:15:56.999Z</time></trkpt><trkpt lat="42.69359350117528" lon="12.719200809420672"><ele>477.4285714285714</ele><time>2026-04-11T08:16:52Z</time></trkpt><trkpt lat="42.693654918638025" lon="12.719147754952756"><ele>477.0</ele><time>2026-04-11T08:17:01Z</time></trkpt><trkpt lat="42.693705493979465" lon="12.719088149848542"><ele>477.0</ele><time>2026-04-11T08:17:07Z</time></trkpt><trkpt lat="42.69377049883991" lon="12.719056272904119"><ele>476.99999999999994</ele><time>2026-04-11T08:17:16Z</time></trkpt><trkpt lat="42.69382032470336" lon="12.719120112829447"><ele>477.0</ele><time>2026-04-11T08:17:24Z</time></trkpt><trkpt lat="42.693868733890724" lon="12.719198626550817"><ele>477.0</ele><time>2026-04-11T08:17:31Z</time></trkpt><trkpt lat="42.69393641123199" lon="12.719198036716964"><ele>476.99999999999994</ele><time>2026-04-11T08:17:40Z</time></trkpt><trkpt lat="42.69393020051859" lon="12.719105171699587"><ele>477.0</ele><time>2026-04-11T08:17:51Z</time></trkpt><trkpt lat="42.6939536537689" lon="12.719009637921376"><ele>477.0</ele><time>2026-04-11T08:18:02Z</time></trkpt><trkpt lat="42.69399639225161" lon="12.718946660759746"><ele>477.0</ele><time>2026-04-11T08:18:09Z</time></trkpt><trkpt lat="42.69400841045056" lon="12.718852185858525"><ele>476.99999999999994</ele><time>2026-04-11T08:18:17Z</time></trkpt><trkpt lat="42.6940366053766" lon="12.718762582745354"><ele>477.0</ele><time>2026-04-11T08:18:25Z</time></trkpt><trkpt lat="42.69404789846515" lon="12.718676364587315"><ele>477.0</ele><time>2026-04-11T08:18:34Z</time></trkpt><trkpt lat="42.69408522585889" lon="12.718605947115766"><ele>476.99999999999994</ele><time>2026-04-11T08:18:41Z</time></trkpt><trkpt lat="42.6941173728083" lon="12.718524048662346"><ele>477.0</ele><time>2026-04-11T08:18:49Z</time></trkpt><trkpt lat="42.69414184873338" lon="12.718441288049258"><ele>477.0</ele><time>2026-04-11T08:18:58Z</time></trkpt><trkpt lat="42.694171270850305" lon="12.718355101109603"><ele>478.1428571428571</ele><time>2026-04-11T08:19:06Z</time></trkpt><trkpt lat="42.69421858273994" lon="12.718288201467153"><ele>479.2857142857142</ele><time>2026-04-11T08:19:19Z</time></trkpt><trkpt lat="42.694263721791344" lon="12.7182276954154"><ele>480.42857142857144</ele><time>2026-04-11T08:19:27Z</time></trkpt><trkpt lat="42.69427465160501" lon="12.718136262296966"><ele>481.57142857142856</ele><time>2026-04-11T08:19:38Z</time></trkpt><trkpt lat="42.69427747621563" lon="12.718046697667532"><ele>482.7142857142857</ele><time>2026-04-11T08:19:49Z</time></trkpt><trkpt lat="42.69427967353077" lon="12.71796013152665"><ele>483.8571428571429</ele><time>2026-04-11T08:20:02Z</time></trkpt><trkpt lat="42.69428288550408" lon="12.71786828865745"><ele>485.00000000000006</ele><time>2026-04-11T08:20:09Z</time></trkpt><trkpt lat="42.69434564653981" lon="12.7178756567477"><ele>485.0</ele><time>2026-04-11T08:20:58Z</time></trkpt></trkseg></trk></gpx>